Time;durP1;ratioP1;P1;durP2;ratioP2;P2;SDS_P1;SDS_P2;PMS_P1;PMS_P2;Temp;Humidity;BMP_temperature;BMP_pressure;BME280_temperature;BME280_humidity;BME280_pressure;Samples;Min_cycle;Max_cycle;Signal;HPM_P1;HPM_P2
2023/09/30 00:00:49;;;;;;;30.97;28.87;;;;;;;;;;5059216;28;20450;-83
2023/09/30 00:03:16;;;;;;;29.00;27.00;;;;;;;;;;5059740;28;20466;-83
2023/09/30 00:05:43;;;;;;;28.93;27.00;;;;;;;;;;5060392;28;20429;-84
2023/09/30 00:08:11;;;;;;;27.20;25.50;;;;;;;;;;5058644;28;20447;-85
2023/09/30 00:10:39;;;;;;;28.30;26.60;;;;;;;;;;5058879;28;20458;-84
2023/09/30 00:13:07;;;;;;;28.00;25.70;;;;;;;;;;5058396;28;20577;-83
2023/09/30 00:15:34;;;;;;;28.70;26.90;;;;;;;;;;5058267;28;20443;-85
2023/09/30 00:18:01;;;;;;;27.10;25.40;;;;;;;;;;5057770;28;20441;-85
2023/09/30 00:20:28;;;;;;;27.90;25.97;;;;;;;;;;5057656;28;20501;-83
2023/09/30 00:22:55;;;;;;;28.30;26.37;;;;;;;;;;5058087;28;20478;-84
2023/09/30 00:25:23;;;;;;;29.70;26.90;;;;;;;;;;5058099;28;20461;-83
2023/09/30 00:27:51;;;;;;;27.83;25.83;;;;;;;;;;5058062;28;20429;-83
2023/09/30 00:30:21;;;;;;;25.93;24.33;;;;;;;;;;5058682;28;20460;-84
2023/09/30 00:32:48;;;;;;;26.23;24.47;;;;;;;;;;5058264;28;20445;-83
2023/09/30 00:35:16;;;;;;;26.17;24.37;;;;;;;;;;5057254;28;20417;-84
2023/09/30 00:37:43;;;;;;;29.37;26.53;;;;;;;;;;5057746;28;20493;-84
2023/09/30 00:40:11;;;;;;;26.43;24.60;;;;;;;;;;5058842;28;20458;-84
2023/09/30 00:42:38;;;;;;;26.67;24.70;;;;;;;;;;5056870;28;20482;-84
2023/09/30 00:45:08;;;;;;;26.47;24.47;;;;;;;;;;5056902;28;20939;-84
2023/09/30 00:47:37;;;;;;;25.93;24.10;;;;;;;;;;5057049;28;20468;-85
2023/09/30 00:50:07;;;;;;;26.10;24.50;;;;;;;;;;5056604;28;20494;-84
2023/09/30 00:52:34;;;;;;;26.50;24.50;;;;;;;;;;5058518;28;20849;-85
2023/09/30 00:55:03;;;;;;;25.63;23.83;;;;;;;;;;5056525;28;20498;-84
2023/09/30 00:57:31;;;;;;;26.60;24.70;;;;;;;;;;5061350;28;20475;-85
2023/09/30 00:59:58;;;;;;;26.50;24.70;;;;;;;;;;5096861;28;20433;-84
2023/09/30 01:02:27;;;;;;;26.27;24.47;;;;;;;;;;5096760;28;20428;-85
2023/09/30 01:04:55;;;;;;;27.40;25.47;;;;;;;;;;5097406;28;20441;-85
2023/09/30 01:07:23;;;;;;;26.20;24.53;;;;;;;;;;5056012;28;20478;-85
2023/09/30 01:09:51;;;;;;;25.63;23.73;;;;;;;;;;5056267;28;20450;-83
2023/09/30 01:12:18;;;;;;;27.03;25.00;;;;;;;;;;5055966;28;20454;-84
2023/09/30 01:14:45;;;;;;;26.53;24.83;;;;;;;;;;5056093;28;20514;-83
2023/09/30 01:17:13;;;;;;;26.57;23.93;;;;;;;;;;5059546;28;20957;-84
2023/09/30 01:19:42;;;;;;;26.00;24.00;;;;;;;;;;5056278;28;20493;-84
2023/09/30 01:22:11;;;;;;;25.53;23.60;;;;;;;;;;5056558;28;20448;-84
2023/09/30 01:24:41;;;;;;;25.67;23.57;;;;;;;;;;5056113;28;20428;-83
2023/09/30 01:27:09;;;;;;;25.00;23.30;;;;;;;;;;5055673;28;20424;-84
2023/09/30 01:29:38;;;;;;;25.87;23.97;;;;;;;;;;5056038;28;20946;-82
2023/09/30 01:32:08;;;;;;;26.07;23.67;;;;;;;;;;5055909;28;20429;-84
2023/09/30 01:34:35;;;;;;;25.03;23.47;;;;;;;;;;5056457;28;20461;-84
2023/09/30 01:37:03;;;;;;;25.07;23.17;;;;;;;;;;5055176;28;20449;-84
2023/09/30 01:39:32;;;;;;;25.37;23.10;;;;;;;;;;5055575;28;20455;-85
2023/09/30 01:41:59;;;;;;;23.13;21.70;;;;;;;;;;5055641;28;20907;-85
2023/09/30 01:44:27;;;;;;;22.07;20.50;;;;;;;;;;5055774;28;20931;-84
2023/09/30 01:46:54;;;;;;;24.70;22.43;;;;;;;;;;5054876;28;20470;-84
2023/09/30 01:49:24;;;;;;;24.60;22.77;;;;;;;;;;5055746;28;20426;-85
2023/09/30 01:51:51;;;;;;;24.37;22.77;;;;;;;;;;5055937;28;20502;-83
2023/09/30 01:54:18;;;;;;;24.10;22.30;;;;;;;;;;5055903;28;20482;-85
2023/09/30 01:56:47;;;;;;;25.83;23.53;;;;;;;;;;5055448;28;20446;-85
2023/09/30 01:59:14;;;;;;;24.43;22.63;;;;;;;;;;5067252;28;20454;-84
2023/09/30 02:01:41;;;;;;;25.40;23.30;;;;;;;;;;5078039;28;20459;-83
2023/09/30 02:04:08;;;;;;;25.27;23.37;;;;;;;;;;5075460;28;20831;-84
2023/09/30 02:06:35;;;;;;;23.90;22.40;;;;;;;;;;5074710;28;20950;-85
2023/09/30 02:09:04;;;;;;;24.80;22.90;;;;;;;;;;5060605;28;20497;-84
2023/09/30 02:11:32;;;;;;;24.10;22.43;;;;;;;;;;5066043;28;20432;-84
2023/09/30 02:14:00;;;;;;;24.50;21.93;;;;;;;;;;5055283;28;20504;-84
2023/09/30 02:16:28;;;;;;;23.70;22.13;;;;;;;;;;5055305;28;20966;-83
2023/09/30 02:18:55;;;;;;;23.97;21.80;;;;;;;;;;5055914;28;20421;-84
2023/09/30 02:21:22;;;;;;;25.87;23.87;;;;;;;;;;5055015;28;20443;-84
2023/09/30 02:23:54;;;;;;;24.23;22.80;;;;;;;;;;5055096;28;20482;-84
2023/09/30 02:26:22;;;;;;;24.60;22.83;;;;;;;;;;5054281;28;20518;-85
2023/09/30 02:28:49;;;;;;;25.17;23.47;;;;;;;;;;5055079;28;20458;-85
2023/09/30 02:31:18;;;;;;;26.00;23.63;;;;;;;;;;5054883;28;20455;-84
2023/09/30 02:33:45;;;;;;;23.73;22.13;;;;;;;;;;5054625;28;20513;-84
2023/09/30 02:36:13;;;;;;;25.63;23.70;;;;;;;;;;5054804;28;20451;-85
2023/09/30 02:38:41;;;;;;;24.53;22.93;;;;;;;;;;5055276;28;20478;-85
2023/09/30 02:41:08;;;;;;;24.87;22.80;;;;;;;;;;5054725;28;20454;-84
2023/09/30 02:43:35;;;;;;;25.23;23.13;;;;;;;;;;5054843;28;20822;-85
2023/09/30 02:46:02;;;;;;;26.80;24.13;;;;;;;;;;5054889;28;20456;-84
2023/09/30 02:48:32;;;;;;;26.43;23.73;;;;;;;;;;5056172;28;20426;-84
2023/09/30 02:50:59;;;;;;;24.40;22.63;;;;;;;;;;5054938;28;20467;-84
2023/09/30 02:53:26;;;;;;;25.33;23.60;;;;;;;;;;5054739;28;20473;-85
2023/09/30 02:55:56;;;;;;;24.40;22.47;;;;;;;;;;5055257;28;20479;-84
2023/09/30 02:58:24;;;;;;;24.07;22.17;;;;;;;;;;5057146;28;20915;-84
2023/09/30 03:00:51;;;;;;;22.47;21.17;;;;;;;;;;5058733;28;20516;-85
2023/09/30 03:03:18;;;;;;;24.03;22.33;;;;;;;;;;5058272;28;20478;-84
2023/09/30 03:05:47;;;;;;;22.87;21.20;;;;;;;;;;5061012;28;20421;-84
2023/09/30 03:08:14;;;;;;;24.87;22.37;;;;;;;;;;5059486;28;20460;-83
2023/09/30 03:10:41;;;;;;;24.80;22.90;;;;;;;;;;5058845;28;20444;-83
2023/09/30 03:13:08;;;;;;;25.00;23.20;;;;;;;;;;5058557;28;20445;-84
2023/09/30 03:15:36;;;;;;;25.00;23.30;;;;;;;;;;5058202;28;20479;-84
2023/09/30 03:18:04;;;;;;;25.60;23.57;;;;;;;;;;5058033;28;20786;-84
2023/09/30 03:20:31;;;;;;;26.73;24.30;;;;;;;;;;5058085;28;20491;-84
2023/09/30 03:23:00;;;;;;;25.83;23.93;;;;;;;;;;5058286;28;20540;-85
2023/09/30 03:25:27;;;;;;;24.40;22.60;;;;;;;;;;5058568;28;20449;-84
2023/09/30 03:27:54;;;;;;;23.80;22.33;;;;;;;;;;5058179;28;20930;-84
2023/09/30 03:30:22;;;;;;;25.20;23.27;;;;;;;;;;5058615;28;20450;-84
2023/09/30 03:32:49;;;;;;;23.47;21.97;;;;;;;;;;5058261;28;20483;-84
2023/09/30 03:35:17;;;;;;;23.70;22.10;;;;;;;;;;5058319;28;20493;-84
2023/09/30 03:37:45;;;;;;;24.33;22.60;;;;;;;;;;5057708;28;20485;-85
2023/09/30 03:40:18;;;;;;;23.77;21.83;;;;;;;;;;5058076;28;20809;-84
2023/09/30 03:42:45;;;;;;;23.73;21.83;;;;;;;;;;5058441;28;20471;-85
2023/09/30 03:45:13;;;;;;;23.83;21.90;;;;;;;;;;5057668;28;20418;-84
2023/09/30 03:47:41;;;;;;;24.37;22.57;;;;;;;;;;5057318;28;20413;-84
2023/09/30 03:50:13;;;;;;;23.80;22.10;;;;;;;;;;5058043;28;20947;-84
2023/09/30 03:52:44;;;;;;;23.50;21.90;;;;;;;;;;5058169;28;20454;-84
2023/09/30 03:55:11;;;;;;;24.00;22.10;;;;;;;;;;5057914;28;20481;-84
2023/09/30 03:57:40;;;;;;;25.53;23.83;;;;;;;;;;5057075;28;20445;-85
2023/09/30 04:00:15;;;;;;;23.20;21.60;;;;;;;;;;5057798;28;20429;-83
2023/09/30 04:02:43;;;;;;;24.00;22.20;;;;;;;;;;5058448;28;20486;-84
2023/09/30 04:05:11;;;;;;;23.70;22.10;;;;;;;;;;5058306;28;20429;-85
2023/09/30 04:07:39;;;;;;;22.97;21.20;;;;;;;;;;5067623;28;20458;-84
2023/09/30 04:10:06;;;;;;;24.33;22.17;;;;;;;;;;5057350;28;20432;-84
2023/09/30 04:12:34;;;;;;;24.50;22.73;;;;;;;;;;5059421;28;20434;-84
2023/09/30 04:15:04;;;;;;;22.37;20.80;;;;;;;;;;5058731;28;20486;-84
2023/09/30 04:17:32;;;;;;;21.87;20.57;;;;;;;;;;5059867;28;20439;-86
2023/09/30 04:20:00;;;;;;;23.07;21.47;;;;;;;;;;5059265;28;20454;-84
2023/09/30 04:22:29;;;;;;;23.33;21.17;;;;;;;;;;5058126;28;20475;-84
2023/09/30 04:24:56;;;;;;;24.23;22.50;;;;;;;;;;5059079;28;20429;-84
2023/09/30 04:27:23;;;;;;;23.57;21.73;;;;;;;;;;5057656;28;20450;-84
2023/09/30 04:29:50;;;;;;;22.07;20.67;;;;;;;;;;5058912;28;20426;-83
2023/09/30 04:32:19;;;;;;;22.20;20.70;;;;;;;;;;5059574;28;20471;-84
2023/09/30 04:34:47;;;;;;;22.13;20.53;;;;;;;;;;5059258;28;20487;-84
2023/09/30 04:37:14;;;;;;;24.03;22.43;;;;;;;;;;5058049;28;21008;-86
2023/09/30 04:39:41;;;;;;;25.80;23.53;;;;;;;;;;5057947;28;20417;-83
2023/09/30 04:42:10;;;;;;;23.10;21.07;;;;;;;;;;5057385;28;20540;-83
2023/09/30 04:44:39;;;;;;;23.23;21.60;;;;;;;;;;5057246;28;20476;-85
2023/09/30 04:47:06;;;;;;;23.60;21.90;;;;;;;;;;5060321;28;20765;-84
2023/09/30 04:49:35;;;;;;;23.10;21.50;;;;;;;;;;5057802;28;20447;-84
2023/09/30 04:52:02;;;;;;;23.47;21.83;;;;;;;;;;5057378;28;20435;-83
2023/09/30 04:54:30;;;;;;;25.53;23.47;;;;;;;;;;5057253;28;20421;-84
2023/09/30 04:56:57;;;;;;;24.43;22.57;;;;;;;;;;5056771;28;20451;-84
2023/09/30 04:59:25;;;;;;;25.63;23.47;;;;;;;;;;5057090;28;20454;-85
2023/09/30 05:01:53;;;;;;;23.73;22.00;;;;;;;;;;5057258;28;20413;-84
2023/09/30 05:04:20;;;;;;;23.40;21.70;;;;;;;;;;5057601;28;20777;-84
2023/09/30 05:06:48;;;;;;;23.63;21.77;;;;;;;;;;5056838;28;20428;-84
2023/09/30 05:09:16;;;;;;;23.63;21.90;;;;;;;;;;5056604;28;20447;-85
2023/09/30 05:11:44;;;;;;;23.13;21.20;;;;;;;;;;5056196;28;20431;-84
2023/09/30 05:14:11;;;;;;;23.77;21.93;;;;;;;;;;5057200;28;20523;-84
2023/09/30 05:16:38;;;;;;;23.97;22.27;;;;;;;;;;5056567;28;20486;-85
2023/09/30 05:19:05;;;;;;;25.10;22.50;;;;;;;;;;5057413;28;20457;-85
2023/09/30 05:21:33;;;;;;;24.87;22.60;;;;;;;;;;5055830;28;20425;-84
2023/09/30 05:24:02;;;;;;;25.57;23.57;;;;;;;;;;5056752;28;20459;-84
2023/09/30 05:26:29;;;;;;;27.27;24.40;;;;;;;;;;5056135;28;20460;-85
2023/09/30 05:28:56;;;;;;;27.10;24.40;;;;;;;;;;5057117;28;20446;-84
2023/09/30 05:31:23;;;;;;;25.63;23.57;;;;;;;;;;5056636;28;20424;-84
2023/09/30 05:33:50;;;;;;;30.93;25.40;;;;;;;;;;5056829;28;20855;-84
2023/09/30 05:36:17;;;;;;;27.43;24.60;;;;;;;;;;5054893;28;20497;-84
2023/09/30 05:38:44;;;;;;;34.87;25.97;;;;;;;;;;5062544;28;20454;-85
2023/09/30 05:41:13;;;;;;;27.20;24.77;;;;;;;;;;5056281;28;20421;-85
2023/09/30 05:43:43;;;;;;;27.57;25.00;;;;;;;;;;5056820;28;20457;-83
2023/09/30 05:46:10;;;;;;;37.03;27.20;;;;;;;;;;5056354;28;20406;-84
2023/09/30 05:48:39;;;;;;;58.87;26.10;;;;;;;;;;5056268;28;20417;-85
2023/09/30 05:51:07;;;;;;;55.63;27.60;;;;;;;;;;5055789;28;20536;-85
2023/09/30 05:53:34;;;;;;;64.90;28.20;;;;;;;;;;5055899;28;20446;-85
2023/09/30 05:56:01;;;;;;;34.17;27.27;;;;;;;;;;5055469;28;20477;-84
2023/09/30 05:58:29;;;;;;;48.63;27.77;;;;;;;;;;5055587;28;20410;-85
2023/09/30 06:00:57;;;;;;;33.20;25.70;;;;;;;;;;5062223;28;20433;-85
2023/09/30 06:03:24;;;;;;;50.10;26.87;;;;;;;;;;5088449;28;20474;-85
2023/09/30 06:05:51;;;;;;;31.57;26.17;;;;;;;;;;5075449;28;20450;-85
2023/09/30 06:08:18;;;;;;;37.43;27.03;;;;;;;;;;5056518;28;20433;-85
2023/09/30 06:10:45;;;;;;;30.93;26.87;;;;;;;;;;5067699;28;20460;-84
2023/09/30 06:13:14;;;;;;;47.47;27.73;;;;;;;;;;5075192;28;20444;-86
2023/09/30 06:15:43;;;;;;;31.00;26.70;;;;;;;;;;5075843;28;20533;-84
2023/09/30 06:18:13;;;;;;;30.50;26.53;;;;;;;;;;5060448;28;20449;-85
2023/09/30 06:20:41;;;;;;;33.57;29.47;;;;;;;;;;5059854;28;20463;-86
2023/09/30 06:23:09;;;;;;;46.47;30.63;;;;;;;;;;5071976;28;20473;-85
2023/09/30 06:25:37;;;;;;;58.97;30.40;;;;;;;;;;5075366;28;20430;-85
2023/09/30 06:28:05;;;;;;;52.23;30.17;;;;;;;;;;5074879;28;20511;-85
2023/09/30 06:30:33;;;;;;;53.50;29.77;;;;;;;;;;5076732;28;20432;-84
2023/09/30 06:33:04;;;;;;;65.03;31.50;;;;;;;;;;5077044;28;20467;-84
2023/09/30 06:35:37;;;;;;;53.80;31.50;;;;;;;;;;5079667;28;20484;-84
2023/09/30 06:38:06;;;;;;;62.00;32.30;;;;;;;;;;5078937;28;20825;-85
2023/09/30 06:40:33;;;;;;;35.20;31.70;;;;;;;;;;5080042;28;20484;-84
2023/09/30 06:43:01;;;;;;;77.00;31.97;;;;;;;;;;5080665;28;20500;-84
2023/09/30 06:45:29;;;;;;;46.20;29.60;;;;;;;;;;5080747;28;20438;-84
2023/09/30 06:47:57;;;;;;;95.53;34.03;;;;;;;;;;5079273;28;20536;-84
2023/09/30 06:50:26;;;;;;;52.10;30.70;;;;;;;;;;5079527;28;20436;-85
2023/09/30 06:52:53;;;;;;;51.17;30.50;;;;;;;;;;5080273;28;20446;-85
2023/09/30 06:55:20;;;;;;;39.97;30.67;;;;;;;;;;5080370;28;20455;-85
2023/09/30 06:57:47;;;;;;;46.47;31.60;;;;;;;;;;5079050;28;20445;-84
2023/09/30 07:00:16;;;;;;;62.33;32.87;;;;;;;;;;5080718;28;20438;-84
2023/09/30 07:02:44;;;;;;;46.30;34.20;;;;;;;;;;5079407;28;20499;-85
2023/09/30 07:05:12;;;;;;;42.40;31.27;;;;;;;;;;5079092;28;20450;-84
2023/09/30 07:07:41;;;;;;;48.83;31.63;;;;;;;;;;5078543;28;20514;-84
2023/09/30 07:10:09;;;;;;;38.07;31.93;;;;;;;;;;5079475;28;20421;-84
2023/09/30 07:12:36;;;;;;;37.40;31.53;;;;;;;;;;5078917;28;20478;-84
2023/09/30 07:15:04;;;;;;;34.70;30.93;;;;;;;;;;5078649;28;20431;-85
2023/09/30 07:17:31;;;;;;;35.67;32.13;;;;;;;;;;5071640;28;20459;-83
2023/09/30 07:19:59;;;;;;;37.13;33.13;;;;;;;;;;5058706;28;21036;-87
2023/09/30 07:25:14;;;;;;;38.47;32.00;;;;;;;;;;5059949;28;20496;-85
2023/09/30 07:27:50;;;;;;;34.60;31.20;;;;;;;;;;5074569;28;20482;-83
2023/09/30 07:30:20;;;;;;;37.73;33.03;;;;;;;;;;5079603;28;20430;-83
2023/09/30 07:32:53;;;;;;;35.90;32.30;;;;;;;;;;5079476;28;20486;-87
2023/09/30 07:35:27;;;;;;;35.10;31.53;;;;;;;;;;5078356;28;20470;-85
2023/09/30 07:38:05;;;;;;;36.00;32.43;;;;;;;;;;5057729;28;21126;-78
2023/09/30 08:07:56;;;;;;;32.73;28.47;;;;;;;;;;4970960;28;20468;-83
2023/09/30 08:10:23;;;;;;;30.97;28.40;;;;;;;;;;4973839;28;20505;-84
2023/09/30 08:12:50;;;;;;;30.30;27.07;;;;;;;;;;4971282;28;20446;-74
2023/09/30 08:15:17;;;;;;;32.13;29.10;;;;;;;;;;4974609;28;20433;-83
2023/09/30 08:17:44;;;;;;;31.63;28.30;;;;;;;;;;4975160;28;20478;-83
2023/09/30 08:20:12;;;;;;;30.80;27.90;;;;;;;;;;4962918;28;20467;-84
2023/09/30 08:22:39;;;;;;;31.30;28.10;;;;;;;;;;4969413;28;20433;-82
2023/09/30 08:25:08;;;;;;;33.17;27.80;;;;;;;;;;4976322;28;20433;-84
2023/09/30 08:27:35;;;;;;;29.90;26.87;;;;;;;;;;4977182;28;20478;-82
2023/09/30 08:30:05;;;;;;;31.70;28.73;;;;;;;;;;4978780;28;20428;-81
2023/09/30 08:32:33;;;;;;;31.03;27.83;;;;;;;;;;4978612;28;20425;-81
2023/09/30 08:35:00;;;;;;;32.47;28.27;;;;;;;;;;4976853;28;20468;-81
2023/09/30 08:37:27;;;;;;;31.73;28.53;;;;;;;;;;4974326;28;20473;-78
2023/09/30 08:39:54;;;;;;;29.80;26.87;;;;;;;;;;4961817;28;20422;-83
2023/09/30 08:42:24;;;;;;;29.13;26.60;;;;;;;;;;4964924;29;20430;-83
2023/09/30 08:44:52;;;;;;;30.80;27.93;;;;;;;;;;4963653;29;20439;-83
2023/09/30 08:47:20;;;;;;;31.67;29.13;;;;;;;;;;4965505;29;20442;-83
2023/09/30 08:49:47;;;;;;;30.03;27.23;;;;;;;;;;4964914;29;20455;-83
2023/09/30 08:52:15;;;;;;;29.77;27.17;;;;;;;;;;4965400;29;20470;-83
2023/09/30 08:54:42;;;;;;;27.63;25.40;;;;;;;;;;4967441;28;20462;-83
2023/09/30 08:57:11;;;;;;;27.03;24.47;;;;;;;;;;4983551;28;20497;-84
2023/09/30 08:59:42;;;;;;;26.70;24.43;;;;;;;;;;4984216;28;20434;-84
2023/09/30 09:02:10;;;;;;;28.87;26.30;;;;;;;;;;4984577;28;20899;-83
2023/09/30 09:04:37;;;;;;;26.87;23.77;;;;;;;;;;4983541;28;20436;-84
2023/09/30 09:07:04;;;;;;;24.43;22.63;;;;;;;;;;4982615;28;20456;-84
2023/09/30 09:09:32;;;;;;;26.73;24.20;;;;;;;;;;4981674;28;20457;-80
2023/09/30 09:11:59;;;;;;;27.70;25.07;;;;;;;;;;4978711;28;20462;-79
2023/09/30 09:14:38;;;;;;;24.87;22.53;;;;;;;;;;4969691;28;20483;-80
2023/09/30 09:17:08;;;;;;;26.40;24.03;;;;;;;;;;4979009;28;20461;-80
2023/09/30 09:19:35;;;;;;;24.77;22.47;;;;;;;;;;4976045;28;20497;-80
2023/09/30 09:22:04;;;;;;;28.90;23.00;;;;;;;;;;4968210;28;20938;-80
2023/09/30 09:24:32;;;;;;;23.83;22.00;;;;;;;;;;4979178;28;20417;-81
2023/09/30 09:27:06;;;;;;;25.83;23.53;;;;;;;;;;4978982;28;21199;-80
2023/09/30 09:29:33;;;;;;;25.27;23.03;;;;;;;;;;4960179;29;20509;-80
2023/09/30 09:32:10;;;;;;;24.97;22.73;;;;;;;;;;4959419;29;20443;-83
2023/09/30 09:34:37;;;;;;;24.47;22.30;;;;;;;;;;4961041;29;20450;-84
2023/09/30 09:37:14;;;;;;;26.80;24.57;;;;;;;;;;4961302;29;21100;-79
2023/09/30 09:39:42;;;;;;;24.03;22.03;;;;;;;;;;4962289;29;20444;-81
2023/09/30 09:42:10;;;;;;;25.50;23.30;;;;;;;;;;4957806;29;20931;-76
2023/09/30 09:44:38;;;;;;;25.50;23.13;;;;;;;;;;4951675;29;20501;-77
2023/09/30 09:47:07;;;;;;;24.07;21.90;;;;;;;;;;4952114;29;20570;-75
2023/09/30 09:49:35;;;;;;;24.90;22.60;;;;;;;;;;4952616;29;20847;-76
2023/09/30 09:52:03;;;;;;;22.63;20.47;;;;;;;;;;4952437;29;20459;-77
2023/09/30 09:54:30;;;;;;;26.90;24.40;;;;;;;;;;4952619;29;20547;-77
2023/09/30 09:56:58;;;;;;;26.07;23.67;;;;;;;;;;4952307;29;20477;-76
2023/09/30 09:59:25;;;;;;;24.83;22.90;;;;;;;;;;4952506;29;20426;-79
2023/09/30 10:01:52;;;;;;;22.67;20.87;;;;;;;;;;4954486;29;20462;-77
2023/09/30 10:04:19;;;;;;;23.43;21.43;;;;;;;;;;4951639;29;20522;-79
2023/09/30 10:06:52;;;;;;;24.20;21.97;;;;;;;;;;4952446;28;20483;-77
2023/09/30 10:09:20;;;;;;;24.77;22.57;;;;;;;;;;4955947;29;20443;-76
2023/09/30 10:11:47;;;;;;;24.03;22.27;;;;;;;;;;4956316;29;20421;-77
2023/09/30 10:14:32;;;;;;;25.70;23.10;;;;;;;;;;4955902;29;20458;-77
2023/09/30 10:16:59;;;;;;;26.53;24.23;;;;;;;;;;4974448;28;20539;-76
2023/09/30 10:19:27;;;;;;;26.00;23.70;;;;;;;;;;4986076;28;20457;-77
2023/09/30 10:22:13;;;;;;;23.67;21.93;;;;;;;;;;4974027;28;21103;-76
2023/09/30 10:24:42;;;;;;;24.23;22.40;;;;;;;;;;4974181;28;20534;-77
2023/09/30 10:27:29;;;;;;;25.73;23.70;;;;;;;;;;4975121;28;20469;-77
2023/09/30 10:29:56;;;;;;;25.70;23.70;;;;;;;;;;4975129;28;20544;-76
2023/09/30 10:32:23;;;;;;;25.40;23.47;;;;;;;;;;4975056;28;20450;-76
2023/09/30 10:34:52;;;;;;;23.07;21.47;;;;;;;;;;4974504;28;20458;-77
2023/09/30 10:37:21;;;;;;;24.30;22.50;;;;;;;;;;4974735;28;20573;-76
2023/09/30 10:39:57;;;;;;;25.30;23.30;;;;;;;;;;4974830;28;20432;-78
2023/09/30 10:42:43;;;;;;;24.40;22.40;;;;;;;;;;4973758;28;20442;-77
2023/09/30 10:45:30;;;;;;;25.73;23.63;;;;;;;;;;4973467;28;20440;-77
2023/09/30 10:47:57;;;;;;;25.17;23.27;;;;;;;;;;4974111;28;21322;-78
2023/09/30 10:50:43;;;;;;;24.77;22.77;;;;;;;;;;4976862;28;20415;-77
2023/09/30 10:53:11;;;;;;;23.80;22.10;;;;;;;;;;4993894;28;21087;-76
2023/09/30 10:55:42;;;;;;;23.73;22.07;;;;;;;;;;4993456;28;20853;-76
2023/09/30 10:58:09;;;;;;;25.47;23.13;;;;;;;;;;4993584;28;20497;-77
2023/09/30 11:00:38;;;;;;;25.73;23.67;;;;;;;;;;4992967;28;20459;-77
2023/09/30 11:03:06;;;;;;;23.93;21.87;;;;;;;;;;4992959;28;20460;-77
2023/09/30 11:05:34;;;;;;;23.90;22.20;;;;;;;;;;4991096;28;20852;-77
2023/09/30 11:08:03;;;;;;;25.93;23.50;;;;;;;;;;4959538;28;20964;-77
2023/09/30 11:10:31;;;;;;;24.80;23.20;;;;;;;;;;4954766;29;20433;-77
2023/09/30 11:13:00;;;;;;;24.50;22.50;;;;;;;;;;4954409;29;20459;-77
2023/09/30 11:15:27;;;;;;;25.30;23.37;;;;;;;;;;4953920;29;20526;-76
2023/09/30 11:17:55;;;;;;;24.10;22.30;;;;;;;;;;4954662;28;20494;-77
2023/09/30 11:20:22;;;;;;;25.20;23.40;;;;;;;;;;4980841;28;20428;-76
2023/09/30 11:22:49;;;;;;;24.43;22.67;;;;;;;;;;4993474;28;20445;-77
2023/09/30 11:25:18;;;;;;;25.20;23.13;;;;;;;;;;4991792;28;20921;-77
2023/09/30 11:27:46;;;;;;;25.30;23.30;;;;;;;;;;4993214;28;20436;-76
2023/09/30 11:30:15;;;;;;;24.70;23.00;;;;;;;;;;4993496;28;20431;-76
2023/09/30 11:32:43;;;;;;;24.97;22.93;;;;;;;;;;4993349;28;20428;-76
2023/09/30 11:35:11;;;;;;;25.33;23.30;;;;;;;;;;4992653;28;20469;-75
2023/09/30 11:37:38;;;;;;;24.77;22.90;;;;;;;;;;4993544;28;20579;-77
2023/09/30 11:40:13;;;;;;;22.63;21.03;;;;;;;;;;4993473;28;20472;-77
2023/09/30 11:42:40;;;;;;;23.90;22.00;;;;;;;;;;4992845;28;20438;-77
2023/09/30 11:45:22;;;;;;;23.30;21.57;;;;;;;;;;4991933;28;20421;-77
2023/09/30 11:47:49;;;;;;;23.63;21.70;;;;;;;;;;4992812;28;20444;-77
2023/09/30 11:50:16;;;;;;;23.80;22.23;;;;;;;;;;4992174;28;20548;-77
2023/09/30 11:52:47;;;;;;;23.13;21.40;;;;;;;;;;4992581;28;21248;-77
2023/09/30 11:55:16;;;;;;;23.53;21.67;;;;;;;;;;4991454;28;20569;-77
2023/09/30 11:57:43;;;;;;;23.97;22.37;;;;;;;;;;4977839;28;20493;-77
2023/09/30 12:00:13;;;;;;;24.93;23.40;;;;;;;;;;4972998;28;20814;-77
2023/09/30 12:02:41;;;;;;;25.70;23.63;;;;;;;;;;4973749;28;20454;-76
2023/09/30 12:05:11;;;;;;;24.67;23.00;;;;;;;;;;4973140;28;20461;-76
2023/09/30 12:07:38;;;;;;;23.30;21.70;;;;;;;;;;4973306;28;20560;-77
2023/09/30 12:10:05;;;;;;;24.30;22.67;;;;;;;;;;4973303;28;20462;-76
2023/09/30 12:12:32;;;;;;;23.50;21.90;;;;;;;;;;4984474;28;20449;-77
2023/09/30 12:14:59;;;;;;;25.37;23.47;;;;;;;;;;4992225;28;20456;-76
2023/09/30 12:17:26;;;;;;;25.83;23.73;;;;;;;;;;4992758;28;20485;-77
2023/09/30 12:19:55;;;;;;;24.13;22.33;;;;;;;;;;4992795;28;20433;-76
2023/09/30 12:22:22;;;;;;;31.73;24.23;;;;;;;;;;4992466;28;20445;-76
2023/09/30 12:24:49;;;;;;;24.20;22.63;;;;;;;;;;4991770;28;20477;-76
2023/09/30 12:27:17;;;;;;;23.70;21.83;;;;;;;;;;4985780;28;20564;-76
2023/09/30 12:29:44;;;;;;;25.67;23.03;;;;;;;;;;4972849;28;20429;-77
2023/09/30 12:32:11;;;;;;;23.80;22.00;;;;;;;;;;4972620;28;20450;-77
2023/09/30 12:34:38;;;;;;;24.60;22.70;;;;;;;;;;4980311;28;20450;-84
2023/09/30 12:37:07;;;;;;;23.93;22.33;;;;;;;;;;4981215;28;20467;-84
2023/09/30 12:39:34;;;;;;;24.07;22.13;;;;;;;;;;4981469;28;20853;-84
2023/09/30 12:42:01;;;;;;;26.13;24.30;;;;;;;;;;4981290;28;21008;-84
2023/09/30 12:44:28;;;;;;;24.83;22.90;;;;;;;;;;4981011;28;20941;-84
2023/09/30 12:46:55;;;;;;;24.50;22.70;;;;;;;;;;4981854;28;20503;-84
2023/09/30 12:49:22;;;;;;;25.47;23.27;;;;;;;;;;4981772;28;20454;-84
2023/09/30 12:51:49;;;;;;;24.17;22.40;;;;;;;;;;4981953;28;20458;-84
2023/09/30 12:54:18;;;;;;;23.47;21.77;;;;;;;;;;4980738;28;20462;-84
2023/09/30 12:56:47;;;;;;;24.70;22.80;;;;;;;;;;4981379;28;20449;-83
2023/09/30 12:59:14;;;;;;;22.07;20.67;;;;;;;;;;4981530;28;20524;-83
2023/09/30 13:01:41;;;;;;;22.83;20.93;;;;;;;;;;4981530;28;20807;-84
2023/09/30 13:04:08;;;;;;;23.23;21.60;;;;;;;;;;4979670;28;20463;-83
2023/09/30 13:06:36;;;;;;;23.90;22.13;;;;;;;;;;4972530;28;20515;-84
2023/09/30 13:09:04;;;;;;;23.90;22.50;;;;;;;;;;4973397;28;20472;-82
2023/09/30 13:11:32;;;;;;;24.50;22.70;;;;;;;;;;4984978;28;20463;-85
2023/09/30 13:13:59;;;;;;;23.10;21.20;;;;;;;;;;4967545;28;20447;-84
2023/09/30 13:16:26;;;;;;;22.40;20.90;;;;;;;;;;4969582;28;20505;-84
2023/09/30 13:18:55;;;;;;;23.20;21.30;;;;;;;;;;4976804;28;20468;-84
2023/09/30 13:21:22;;;;;;;23.07;21.50;;;;;;;;;;4981718;28;20426;-83
2023/09/30 13:23:49;;;;;;;23.60;21.90;;;;;;;;;;4983725;28;20481;-83
2023/09/30 13:26:17;;;;;;;23.57;21.80;;;;;;;;;;4981504;28;20458;-84
2023/09/30 13:28:45;;;;;;;22.40;20.70;;;;;;;;;;4981886;28;20821;-84
2023/09/30 13:31:12;;;;;;;22.83;21.20;;;;;;;;;;4982458;28;20436;-85
2023/09/30 13:33:39;;;;;;;23.43;21.80;;;;;;;;;;4982302;28;20511;-83
2023/09/30 13:36:06;;;;;;;24.83;22.50;;;;;;;;;;4982155;28;20557;-84
2023/09/30 13:38:38;;;;;;;23.50;21.30;;;;;;;;;;4982298;28;20486;-84
2023/09/30 13:41:05;;;;;;;24.37;22.30;;;;;;;;;;4982333;28;20438;-84
2023/09/30 13:43:32;;;;;;;22.90;21.17;;;;;;;;;;4975466;28;20452;-84
2023/09/30 13:46:06;;;;;;;22.83;21.33;;;;;;;;;;4962186;29;20477;-84
2023/09/30 13:48:33;;;;;;;24.53;22.40;;;;;;;;;;4963265;29;20479;-85
2023/09/30 13:51:05;;;;;;;23.03;21.63;;;;;;;;;;4961829;29;20451;-84
2023/09/30 13:53:33;;;;;;;23.17;21.50;;;;;;;;;;4943562;29;20451;-84
2023/09/30 13:56:00;;;;;;;24.17;22.37;;;;;;;;;;4942232;29;20440;-84
2023/09/30 13:58:27;;;;;;;23.17;21.67;;;;;;;;;;4943359;29;20474;-84
2023/09/30 14:00:56;;;;;;;23.90;22.33;;;;;;;;;;4943259;29;20467;-84
2023/09/30 14:03:25;;;;;;;23.23;21.83;;;;;;;;;;4943807;29;20480;-84
2023/09/30 14:05:53;;;;;;;23.27;21.53;;;;;;;;;;4942788;29;20456;-85
2023/09/30 14:08:20;;;;;;;23.10;21.60;;;;;;;;;;4950000;28;20463;-84
2023/09/30 14:10:47;;;;;;;23.03;21.43;;;;;;;;;;4959574;29;21218;-83
2023/09/30 14:13:14;;;;;;;23.40;21.60;;;;;;;;;;4942762;29;20451;-85
2023/09/30 14:15:42;;;;;;;23.10;21.40;;;;;;;;;;4941830;29;20439;-85
2023/09/30 14:18:09;;;;;;;22.90;21.60;;;;;;;;;;4945712;28;20485;-84
2023/09/30 14:20:37;;;;;;;23.27;21.47;;;;;;;;;;4961995;29;20422;-85
2023/09/30 14:23:04;;;;;;;22.43;20.80;;;;;;;;;;4960888;29;20414;-85
2023/09/30 14:25:31;;;;;;;23.53;21.90;;;;;;;;;;4940901;29;20459;-85
2023/09/30 14:27:59;;;;;;;22.67;21.13;;;;;;;;;;4940735;29;20463;-85
2023/09/30 14:30:27;;;;;;;23.67;22.17;;;;;;;;;;4953972;28;20475;-85
2023/09/30 14:32:54;;;;;;;23.67;22.17;;;;;;;;;;4952834;29;20467;-84
2023/09/30 14:35:21;;;;;;;22.83;21.43;;;;;;;;;;4958880;28;20941;-85
2023/09/30 14:37:51;;;;;;;23.73;22.10;;;;;;;;;;4958674;29;21001;-84
2023/09/30 14:40:18;;;;;;;23.53;22.13;;;;;;;;;;4967692;28;20463;-87
2023/09/30 14:42:45;;;;;;;24.03;22.23;;;;;;;;;;4953760;29;20459;-84
2023/09/30 14:45:12;;;;;;;24.17;22.60;;;;;;;;;;4956965;28;20466;-85
2023/09/30 14:47:40;;;;;;;24.93;23.10;;;;;;;;;;4958620;29;20450;-85
2023/09/30 14:50:08;;;;;;;23.40;21.77;;;;;;;;;;4958756;29;20423;-85
2023/09/30 14:52:35;;;;;;;25.10;23.27;;;;;;;;;;4942411;29;20439;-84